Time;durP1;ratioP1;P1;durP2;ratioP2;P2;SDS_P1;SDS_P2;PMS_P1;PMS_P2;Temp;Humidity;BMP_temperature;BMP_pressure;BME280_temperature;BME280_humidity;BME280_pressure;Samples;Min_cycle;Max_cycle;Signal;HPM_P1;HPM_P2
2024/03/25 16:36:49;;;;;;;;;;;4.40;99.90;;;;;;5141912;27;20332;-96
2024/03/25 16:39:14;;;;;;;;;;;4.40;99.90;;;;;;5120325;28;20006;-95
2024/03/25 16:41:40;;;;;;;;;;;4.50;99.90;;;;;;5117878;28;19965;-94
2024/03/25 16:44:05;;;;;;;;;;;4.50;99.90;;;;;;5119300;28;19914;-93
2024/03/25 16:46:31;;;;;;;;;;;4.60;99.90;;;;;;5117812;28;19912;-95
2024/03/25 16:48:59;;;;;;;;;;;4.70;99.90;;;;;;5119541;28;20324;-96
2024/03/25 16:51:26;;;;;;;;;;;4.80;99.90;;;;;;5128342;27;19915;-96
2024/03/25 16:56:37;;;;;;;;;;;5.00;99.90;;;;;;5406673;22;19924;-96
2024/03/25 16:59:06;;;;;;;;;;;5.10;99.90;;;;;;5111931;28;19912;-96
2024/03/25 17:06:54;;;;;;;;;;;5.20;99.90;;;;;;5310422;22;19924;-96
2024/03/25 17:09:27;;;;;;;;;;;5.30;99.90;;;;;;5110970;28;19913;-96
2024/03/25 17:11:56;;;;;;;;;;;5.30;99.90;;;;;;5214083;22;19925;-96
2024/03/25 17:16:57;;;;;;;;;;;5.40;99.90;;;;;;5558368;22;20809;-96
2024/03/25 17:19:51;;;;;;;;;;;5.40;99.90;;;;;;5082250;28;20011;-96
2024/03/25 17:22:18;;;;;;;;;;;5.40;99.90;;;;;;5093669;28;19912;-96
2024/03/25 17:24:44;;;;;;;;;;;5.40;99.90;;;;;;5080586;28;19916;-93
2024/03/25 17:27:47;;;;;;;;;;;5.40;99.90;;;;;;5083518;28;19907;-96
2024/03/25 17:33:17;;;;;;;;;;;5.50;99.90;;;;;;5005733;28;20263;-92
2024/03/25 17:35:43;;;;;;;;;;;5.40;99.90;;;;;;4973433;28;19914;-91
2024/03/25 17:38:08;;;;;;;;;;;5.50;99.90;;;;;;4995367;28;19921;-94
2024/03/25 17:40:34;;;;;;;;;;;5.50;99.90;;;;;;5061445;28;20332;-94
2024/03/25 17:42:59;;;;;;;;;;;5.50;99.90;;;;;;5069101;28;19913;-91
2024/03/25 17:45:25;;;;;;;;;;;5.50;99.90;;;;;;5067014;28;20011;-93
2024/03/25 17:47:50;;;;;;;;;;;5.50;99.90;;;;;;5078941;28;20380;-93
2024/03/25 17:50:19;;;;;;;;;;;5.50;99.90;;;;;;5053341;28;19912;-92
2024/03/25 17:52:44;;;;;;;;;;;5.50;99.90;;;;;;5049578;28;19921;-92
2024/03/25 17:55:09;;;;;;;;;;;5.50;99.90;;;;;;5049559;28;19920;-92
2024/03/25 17:57:36;;;;;;;;;;;5.50;99.90;;;;;;5054217;28;19916;-96
2024/03/25 18:10:23;;;;;;;;;;;5.50;99.90;;;;;;5341745;22;19931;-91
2024/03/25 18:12:48;;;;;;;;;;;5.50;99.90;;;;;;5074212;28;19913;-92
2024/03/25 18:15:14;;;;;;;;;;;5.50;99.90;;;;;;5081949;28;19908;-92
2024/03/25 18:17:40;;;;;;;;;;;5.50;99.90;;;;;;5078497;28;20007;-92
2024/03/25 18:20:06;;;;;;;;;;;5.60;99.90;;;;;;5077190;28;20344;-92
2024/03/25 18:22:31;;;;;;;;;;;5.50;99.90;;;;;;5078009;28;19942;-92
2024/03/25 18:24:57;;;;;;;;;;;5.50;99.90;;;;;;5083997;28;19912;-92
2024/03/25 18:27:23;;;;;;;;;;;5.50;99.90;;;;;;5072700;28;20039;-92
2024/03/25 18:29:49;;;;;;;;;;;5.60;99.90;;;;;;5077615;28;20322;-92
2024/03/25 18:32:16;;;;;;;;;;;5.50;99.90;;;;;;5089962;28;19929;-93
2024/03/25 18:34:41;;;;;;;;;;;5.50;99.90;;;;;;5075617;28;19998;-92
2024/03/25 18:37:07;;;;;;;;;;;5.50;99.90;;;;;;5093138;28;19939;-92
2024/03/25 18:39:33;;;;;;;;;;;5.50;99.90;;;;;;5066260;28;19909;-92
2024/03/25 18:41:58;;;;;;;;;;;5.50;99.90;;;;;;5079058;28;19928;-92
2024/03/25 19:01:12;;;;;;;;;;;5.50;99.90;;;;;;5420982;22;19909;-96
2024/03/25 19:04:06;;;;;;;;;;;5.50;99.90;;;;;;5264172;22;19914;-96
2024/03/25 19:06:33;;;;;;;;;;;5.50;99.90;;;;;;5111510;28;19920;-92
2024/03/25 19:08:59;;;;;;;;;;;5.50;99.90;;;;;;5091369;28;20330;-91
2024/03/25 19:11:24;;;;;;;;;;;5.50;99.90;;;;;;5093823;28;19912;-92
2024/03/25 19:13:50;;;;;;;;;;;5.50;99.90;;;;;;5103457;28;19912;-96
2024/03/25 19:16:22;;;;;;;;;;;5.50;99.90;;;;;;5278991;22;19923;-96
2024/03/25 19:18:48;;;;;;;;;;;5.50;99.90;;;;;;5134445;28;19922;-96
2024/03/25 19:21:15;;;;;;;;;;;5.50;99.90;;;;;;5110407;28;19907;-96
2024/03/25 19:23:45;;;;;;;;;;;5.50;99.90;;;;;;5108872;28;19899;-96
2024/03/25 19:26:12;;;;;;;;;;;5.50;99.90;;;;;;5110218;28;19947;-96
2024/03/25 19:36:45;;;;;;;;;;;5.50;99.90;;;;;;5093718;28;19958;-96
2024/03/25 19:41:45;;;;;;;;;;;5.50;99.90;;;;;;5084028;28;19932;-95
2024/03/25 19:44:11;;;;;;;;;;;5.50;99.90;;;;;;5058249;28;19908;-94
2024/03/25 19:46:37;;;;;;;;;;;5.50;99.90;;;;;;5076029;28;19954;-89
2024/03/25 21:40:22;;;;;;;;;;;4.30;99.90;;;;;;5087822;27;19919;-91
